sensor_id;sensor_type;location;lat;lon;timestamp;temperature;humidity
5334;DHT22;2689;50.954;7.116;2024-03-02T00:00:50;8.00;98.00
5334;DHT22;2689;50.954;7.116;2024-03-02T00:03:18;8.00;98.00
5334;DHT22;2689;50.954;7.116;2024-03-02T00:05:49;8.00;98.00
5334;DHT22;2689;50.954;7.116;2024-03-02T00:08:23;8.00;98.10
5334;DHT22;2689;50.954;7.116;2024-03-02T00:10:50;8.00;98.10
5334;DHT22;2689;50.954;7.116;2024-03-02T00:13:21;8.00;98.10
5334;DHT22;2689;50.954;7.116;2024-03-02T00:15:52;8.10;98.10
5334;DHT22;2689;50.954;7.116;2024-03-02T00:18:21;8.00;98.00
5334;DHT22;2689;50.954;7.116;2024-03-02T00:20:48;8.10;98.00
5334;DHT22;2689;50.954;7.116;2024-03-02T00:23:16;8.20;97.90
5334;DHT22;2689;50.954;7.116;2024-03-02T00:25:44;8.20;97.60
5334;DHT22;2689;50.954;7.116;2024-03-02T00:28:16;8.30;97.50
5334;DHT22;2689;50.954;7.116;2024-03-02T00:30:55;8.40;97.30
5334;DHT22;2689;50.954;7.116;2024-03-02T00:33:23;8.50;97.00
5334;DHT22;2689;50.954;7.116;2024-03-02T00:35:51;8.50;96.90
5334;DHT22;2689;50.954;7.116;2024-03-02T00:38:17;8.50;96.80
5334;DHT22;2689;50.954;7.116;2024-03-02T00:40:45;8.60;96.70
5334;DHT22;2689;50.954;7.116;2024-03-02T00:46:12;8.60;96.40
5334;DHT22;2689;50.954;7.116;2024-03-02T00:48:46;8.70;96.20
5334;DHT22;2689;50.954;7.116;2024-03-02T00:51:14;8.70;96.00
5334;DHT22;2689;50.954;7.116;2024-03-02T00:53:41;8.70;95.80
5334;DHT22;2689;50.954;7.116;2024-03-02T00:56:10;8.80;95.80
5334;DHT22;2689;50.954;7.116;2024-03-02T00:58:37;8.80;96.00
5334;DHT22;2689;50.954;7.116;2024-03-02T01:01:04;8.80;95.50
5334;DHT22;2689;50.954;7.116;2024-03-02T01:03:34;8.80;95.40
5334;DHT22;2689;50.954;7.116;2024-03-02T01:06:03;8.80;95.40
5334;DHT22;2689;50.954;7.116;2024-03-02T01:08:30;8.80;95.40
5334;DHT22;2689;50.954;7.116;2024-03-02T01:10:56;8.80;95.40
5334;DHT22;2689;50.954;7.116;2024-03-02T01:13:23;8.80;95.30
5334;DHT22;2689;50.954;7.116;2024-03-02T01:15:49;8.70;95.30
5334;DHT22;2689;50.954;7.116;2024-03-02T01:18:16;8.80;95.40
5334;DHT22;2689;50.954;7.116;2024-03-02T01:20:44;8.70;95.20
5334;DHT22;2689;50.954;7.116;2024-03-02T01:23:11;8.70;95.10
5334;DHT22;2689;50.954;7.116;2024-03-02T01:25:38;8.80;95.10
5334;DHT22;2689;50.954;7.116;2024-03-02T01:28:05;8.70;95.10
5334;DHT22;2689;50.954;7.116;2024-03-02T01:30:32;8.70;95.10
5334;DHT22;2689;50.954;7.116;2024-03-02T01:33:00;8.70;95.10
5334;DHT22;2689;50.954;7.116;2024-03-02T01:35:27;8.70;95.30
5334;DHT22;2689;50.954;7.116;2024-03-02T01:37:56;8.70;95.00
5334;DHT22;2689;50.954;7.116;2024-03-02T01:40:23;8.70;94.90
5334;DHT22;2689;50.954;7.116;2024-03-02T01:42:52;8.70;94.80
5334;DHT22;2689;50.954;7.116;2024-03-02T01:45:20;8.80;94.80
5334;DHT22;2689;50.954;7.116;2024-03-02T01:47:47;8.80;94.80
5334;DHT22;2689;50.954;7.116;2024-03-02T01:50:14;8.80;94.70
5334;DHT22;2689;50.954;7.116;2024-03-02T01:52:41;8.80;94.70
5334;DHT22;2689;50.954;7.116;2024-03-02T01:55:11;8.80;94.50
5334;DHT22;2689;50.954;7.116;2024-03-02T01:57:38;8.80;94.50
5334;DHT22;2689;50.954;7.116;2024-03-02T02:00:05;8.80;94.50
5334;DHT22;2689;50.954;7.116;2024-03-02T02:02:35;8.80;94.50
5334;DHT22;2689;50.954;7.116;2024-03-02T02:05:03;8.80;94.40
5334;DHT22;2689;50.954;7.116;2024-03-02T02:07:29;8.80;94.40
5334;DHT22;2689;50.954;7.116;2024-03-02T02:09:56;8.80;94.40
5334;DHT22;2689;50.954;7.116;2024-03-02T02:12:25;8.70;94.40
5334;DHT22;2689;50.954;7.116;2024-03-02T02:14:52;8.70;94.40
5334;DHT22;2689;50.954;7.116;2024-03-02T02:17:19;8.70;94.40
5334;DHT22;2689;50.954;7.116;2024-03-02T02:19:46;8.70;94.40
5334;DHT22;2689;50.954;7.116;2024-03-02T02:22:15;8.70;94.50
5334;DHT22;2689;50.954;7.116;2024-03-02T02:24:42;8.80;94.40
5334;DHT22;2689;50.954;7.116;2024-03-02T02:27:10;8.70;94.50
5334;DHT22;2689;50.954;7.116;2024-03-02T02:29:38;8.70;94.30
5334;DHT22;2689;50.954;7.116;2024-03-02T02:32:05;8.70;94.40
5334;DHT22;2689;50.954;7.116;2024-03-02T02:34:33;8.70;94.30
5334;DHT22;2689;50.954;7.116;2024-03-02T02:37:00;8.70;94.40
5334;DHT22;2689;50.954;7.116;2024-03-02T02:39:29;8.70;94.40
5334;DHT22;2689;50.954;7.116;2024-03-02T02:41:56;8.70;94.40
5334;DHT22;2689;50.954;7.116;2024-03-02T02:44:23;8.60;94.50
5334;DHT22;2689;50.954;7.116;2024-03-02T02:46:50;8.60;94.60
5334;DHT22;2689;50.954;7.116;2024-03-02T02:49:17;8.60;94.70
5334;DHT22;2689;50.954;7.116;2024-03-02T02:51:44;8.50;94.80
5334;DHT22;2689;50.954;7.116;2024-03-02T02:54:11;8.50;94.80
5334;DHT22;2689;50.954;7.116;2024-03-02T02:56:39;8.50;94.90
5334;DHT22;2689;50.954;7.116;2024-03-02T02:59:06;8.50;94.80
5334;DHT22;2689;50.954;7.116;2024-03-02T03:01:33;8.60;94.90
5334;DHT22;2689;50.954;7.116;2024-03-02T03:04:00;8.60;94.80
5334;DHT22;2689;50.954;7.116;2024-03-02T03:06:26;8.60;94.60
5334;DHT22;2689;50.954;7.116;2024-03-02T03:08:53;8.70;94.70
5334;DHT22;2689;50.954;7.116;2024-03-02T03:11:20;8.70;94.60
5334;DHT22;2689;50.954;7.116;2024-03-02T03:13:49;8.70;94.60
5334;DHT22;2689;50.954;7.116;2024-03-02T03:16:16;8.80;94.60
5334;DHT22;2689;50.954;7.116;2024-03-02T03:18:43;8.80;94.40
5334;DHT22;2689;50.954;7.116;2024-03-02T03:21:10;8.80;94.30
5334;DHT22;2689;50.954;7.116;2024-03-02T03:23:37;8.80;94.20
5334;DHT22;2689;50.954;7.116;2024-03-02T03:26:03;8.80;94.20
5334;DHT22;2689;50.954;7.116;2024-03-02T03:28:31;8.90;94.40
5334;DHT22;2689;50.954;7.116;2024-03-02T03:30:59;9.00;94.50
5334;DHT22;2689;50.954;7.116;2024-03-02T03:33:27;9.10;94.10
5334;DHT22;2689;50.954;7.116;2024-03-02T03:35:54;9.10;93.90
5334;DHT22;2689;50.954;7.116;2024-03-02T03:38:21;9.10;93.90
5334;DHT22;2689;50.954;7.116;2024-03-02T03:40:48;9.10;93.70
5334;DHT22;2689;50.954;7.116;2024-03-02T03:43:14;9.20;93.70
5334;DHT22;2689;50.954;7.116;2024-03-02T03:45:41;9.10;93.80
5334;DHT22;2689;50.954;7.116;2024-03-02T03:48:10;9.20;93.80
5334;DHT22;2689;50.954;7.116;2024-03-02T03:50:45;9.10;93.50
5334;DHT22;2689;50.954;7.116;2024-03-02T03:53:12;9.10;93.60
5334;DHT22;2689;50.954;7.116;2024-03-02T03:55:40;9.00;93.70
5334;DHT22;2689;50.954;7.116;2024-03-02T03:58:07;9.00;93.80
5334;DHT22;2689;50.954;7.116;2024-03-02T04:00:34;9.00;93.90
5334;DHT22;2689;50.954;7.116;2024-03-02T04:03:01;9.00;93.90
5334;DHT22;2689;50.954;7.116;2024-03-02T04:05:31;8.90;93.90
5334;DHT22;2689;50.954;7.116;2024-03-02T04:07:57;8.90;94.00
5334;DHT22;2689;50.954;7.116;2024-03-02T04:10:25;8.90;94.00
5334;DHT22;2689;50.954;7.116;2024-03-02T04:12:52;8.80;94.10
5334;DHT22;2689;50.954;7.116;2024-03-02T04:15:19;8.80;94.20
5334;DHT22;2689;50.954;7.116;2024-03-02T04:17:45;8.60;94.30
5334;DHT22;2689;50.954;7.116;2024-03-02T04:20:13;8.60;94.50
5334;DHT22;2689;50.954;7.116;2024-03-02T04:22:41;8.50;94.60
5334;DHT22;2689;50.954;7.116;2024-03-02T04:25:08;8.40;94.70
5334;DHT22;2689;50.954;7.116;2024-03-02T04:27:35;8.40;94.80
5334;DHT22;2689;50.954;7.116;2024-03-02T04:30:02;8.30;94.90
5334;DHT22;2689;50.954;7.116;2024-03-02T04:32:30;8.20;95.10
5334;DHT22;2689;50.954;7.116;2024-03-02T04:34:57;8.20;95.30
5334;DHT22;2689;50.954;7.116;2024-03-02T04:37:25;8.20;95.40
5334;DHT22;2689;50.954;7.116;2024-03-02T04:39:53;8.10;95.50
5334;DHT22;2689;50.954;7.116;2024-03-02T04:42:20;8.10;95.60
5334;DHT22;2689;50.954;7.116;2024-03-02T04:44:48;8.10;95.70
5334;DHT22;2689;50.954;7.116;2024-03-02T04:47:14;8.10;95.80
5334;DHT22;2689;50.954;7.116;2024-03-02T04:49:42;8.00;95.90
5334;DHT22;2689;50.954;7.116;2024-03-02T04:52:09;8.00;96.00
5334;DHT22;2689;50.954;7.116;2024-03-02T04:54:36;8.00;96.40
5334;DHT22;2689;50.954;7.116;2024-03-02T04:57:24;7.90;96.20
5334;DHT22;2689;50.954;7.116;2024-03-02T04:59:51;7.90;96.40
5334;DHT22;2689;50.954;7.116;2024-03-02T05:02:18;7.90;96.40
5334;DHT22;2689;50.954;7.116;2024-03-02T05:04:45;7.80;96.50
5334;DHT22;2689;50.954;7.116;2024-03-02T05:07:13;7.80;96.60
5334;DHT22;2689;50.954;7.116;2024-03-02T05:09:40;7.80;96.70
5334;DHT22;2689;50.954;7.116;2024-03-02T05:12:07;7.70;96.90
5334;DHT22;2689;50.954;7.116;2024-03-02T05:14:56;7.70;97.10
5334;DHT22;2689;50.954;7.116;2024-03-02T05:17:23;7.70;97.20
5334;DHT22;2689;50.954;7.116;2024-03-02T05:19:49;7.60;97.30
5334;DHT22;2689;50.954;7.116;2024-03-02T05:22:18;7.60;97.40
5334;DHT22;2689;50.954;7.116;2024-03-02T05:24:45;7.60;97.40
5334;DHT22;2689;50.954;7.116;2024-03-02T05:27:12;7.60;97.50
5334;DHT22;2689;50.954;7.116;2024-03-02T05:29:40;7.60;97.60
5334;DHT22;2689;50.954;7.116;2024-03-02T05:32:08;7.50;97.70
5334;DHT22;2689;50.954;7.116;2024-03-02T05:34:35;7.50;97.90
5334;DHT22;2689;50.954;7.116;2024-03-02T05:37:02;7.50;98.10
5334;DHT22;2689;50.954;7.116;2024-03-02T05:39:29;7.50;98.10
5334;DHT22;2689;50.954;7.116;2024-03-02T05:41:56;7.50;98.20
5334;DHT22;2689;50.954;7.116;2024-03-02T05:44:24;7.40;98.30
5334;DHT22;2689;50.954;7.116;2024-03-02T05:46:51;7.40;98.50
5334;DHT22;2689;50.954;7.116;2024-03-02T05:49:19;7.40;98.60
5334;DHT22;2689;50.954;7.116;2024-03-02T05:51:46;7.40;98.80
5334;DHT22;2689;50.954;7.116;2024-03-02T05:54:13;7.30;98.80
5334;DHT22;2689;50.954;7.116;2024-03-02T05:56:40;7.30;98.90
5334;DHT22;2689;50.954;7.116;2024-03-02T05:59:07;7.30;99.10
5334;DHT22;2689;50.954;7.116;2024-03-02T06:01:38;7.30;99.30
5334;DHT22;2689;50.954;7.116;2024-03-02T06:04:05;7.20;99.30
5334;DHT22;2689;50.954;7.116;2024-03-02T06:06:36;7.30;99.40
5334;DHT22;2689;50.954;7.116;2024-03-02T06:09:03;7.30;99.50
5334;DHT22;2689;50.954;7.116;2024-03-02T06:11:33;7.30;99.50
5334;DHT22;2689;50.954;7.116;2024-03-02T06:14:00;7.30;99.50
5334;DHT22;2689;50.954;7.116;2024-03-02T06:16:27;7.30;99.80
5334;DHT22;2689;50.954;7.116;2024-03-02T06:18:53;7.40;99.40
5334;DHT22;2689;50.954;7.116;2024-03-02T06:21:20;7.40;99.30
5334;DHT22;2689;50.954;7.116;2024-03-02T06:23:48;7.40;99.30
5334;DHT22;2689;50.954;7.116;2024-03-02T06:26:18;7.50;99.20
5334;DHT22;2689;50.954;7.116;2024-03-02T06:28:45;7.50;99.00
5334;DHT22;2689;50.954;7.116;2024-03-02T06:31:12;7.50;99.10
5334;DHT22;2689;50.954;7.116;2024-03-02T06:45:36;7.60;98.90
5334;DHT22;2689;50.954;7.116;2024-03-02T06:48:03;7.70;99.00
5334;DHT22;2689;50.954;7.116;2024-03-02T06:50:30;7.70;98.90
5334;DHT22;2689;50.954;7.116;2024-03-02T06:52:57;7.70;99.00
5334;DHT22;2689;50.954;7.116;2024-03-02T06:55:24;7.70;99.00
5334;DHT22;2689;50.954;7.116;2024-03-02T06:57:51;7.70;98.90
5334;DHT22;2689;50.954;7.116;2024-03-02T07:00:19;7.80;98.80
5334;DHT22;2689;50.954;7.116;2024-03-02T07:02:48;7.80;98.80
5334;DHT22;2689;50.954;7.116;2024-03-02T07:05:15;7.90;98.70
5334;DHT22;2689;50.954;7.116;2024-03-02T07:07:42;8.00;98.30
5334;DHT22;2689;50.954;7.116;2024-03-02T07:10:09;8.00;98.10
5334;DHT22;2689;50.954;7.116;2024-03-02T07:12:36;8.10;98.10
5334;DHT22;2689;50.954;7.116;2024-03-02T07:15:03;8.20;98.10
5334;DHT22;2689;50.954;7.116;2024-03-02T07:18:04;8.20;98.00
5334;DHT22;2689;50.954;7.116;2024-03-02T07:20:31;8.20;97.50
5334;DHT22;2689;50.954;7.116;2024-03-02T07:22:58;8.20;97.60
5334;DHT22;2689;50.954;7.116;2024-03-02T07:25:25;8.20;97.60
5334;DHT22;2689;50.954;7.116;2024-03-02T07:27:53;8.10;97.60
5334;DHT22;2689;50.954;7.116;2024-03-02T07:30:20;8.20;97.60
5334;DHT22;2689;50.954;7.116;2024-03-02T07:32:50;8.20;97.60
5334;DHT22;2689;50.954;7.116;2024-03-02T07:35:18;8.30;97.60
5334;DHT22;2689;50.954;7.116;2024-03-02T07:37:45;8.40;97.60
5334;DHT22;2689;50.954;7.116;2024-03-02T07:40:12;8.50;97.20
5334;DHT22;2689;50.954;7.116;2024-03-02T07:42:40;8.60;96.90
5334;DHT22;2689;50.954;7.116;2024-03-02T07:45:07;8.70;96.80
5334;DHT22;2689;50.954;7.116;2024-03-02T07:47:34;8.80;96.40
5334;DHT22;2689;50.954;7.116;2024-03-02T07:50:01;8.90;96.30
5334;DHT22;2689;50.954;7.116;2024-03-02T07:52:33;9.20;96.20
5334;DHT22;2689;50.954;7.116;2024-03-02T07:55:00;9.60;95.30
5334;DHT22;2689;50.954;7.116;2024-03-02T07:57:26;10.40;94.30
5334;DHT22;2689;50.954;7.116;2024-03-02T07:59:53;11.10;92.00
5334;DHT22;2689;50.954;7.116;2024-03-02T08:02:20;11.30;90.80
5334;DHT22;2689;50.954;7.116;2024-03-02T08:04:47;11.20;90.70
5334;DHT22;2689;50.954;7.116;2024-03-02T08:07:15;11.10;91.00
5334;DHT22;2689;50.954;7.116;2024-03-02T08:09:43;11.60;90.50
5334;DHT22;2689;50.954;7.116;2024-03-02T08:12:11;12.30;88.60
5334;DHT22;2689;50.954;7.116;2024-03-02T08:14:38;13.00;88.50
5334;DHT22;2689;50.954;7.116;2024-03-02T08:17:05;14.00;86.30
5334;DHT22;2689;50.954;7.116;2024-03-02T08:19:37;14.80;81.00
5334;DHT22;2689;50.954;7.116;2024-03-02T08:22:04;15.70;79.50
5334;DHT22;2689;50.954;7.116;2024-03-02T08:24:32;16.30;75.80
5334;DHT22;2689;50.954;7.116;2024-03-02T08:27:00;17.00;74.50
5334;DHT22;2689;50.954;7.116;2024-03-02T08:29:31;17.50;71.20
5334;DHT22;2689;50.954;7.116;2024-03-02T08:31:58;17.70;68.90
5334;DHT22;2689;50.954;7.116;2024-03-02T08:34:25;17.90;67.40
5334;DHT22;2689;50.954;7.116;2024-03-02T08:36:55;17.60;67.10
5334;DHT22;2689;50.954;7.116;2024-03-02T08:39:22;17.30;68.10
5334;DHT22;2689;50.954;7.116;2024-03-02T08:41:49;17.10;68.10
5334;DHT22;2689;50.954;7.116;2024-03-02T08:44:18;17.20;69.10
5334;DHT22;2689;50.954;7.116;2024-03-02T08:46:45;18.00;67.00
5334;DHT22;2689;50.954;7.116;2024-03-02T08:49:14;18.50;64.50
5334;DHT22;2689;50.954;7.116;2024-03-02T08:51:41;18.60;64.50
5334;DHT22;2689;50.954;7.116;2024-03-02T08:54:08;17.80;65.10
5334;DHT22;2689;50.954;7.116;2024-03-02T08:56:35;17.30;67.30
5334;DHT22;2689;50.954;7.116;2024-03-02T08:59:04;18.00;66.40
5334;DHT22;2689;50.954;7.116;2024-03-02T09:01:33;17.90;64.90
5334;DHT22;2689;50.954;7.116;2024-03-02T09:04:06;17.50;65.90
5334;DHT22;2689;50.954;7.116;2024-03-02T09:06:33;17.90;65.60
5334;DHT22;2689;50.954;7.116;2024-03-02T09:08:59;18.80;64.50
5334;DHT22;2689;50.954;7.116;2024-03-02T09:11:27;19.00;62.50
5334;DHT22;2689;50.954;7.116;2024-03-02T09:13:58;19.50;61.70
5334;DHT22;2689;50.954;7.116;2024-03-02T09:16:25;20.50;61.70
5334;DHT22;2689;50.954;7.116;2024-03-02T09:18:58;20.70;58.00
5334;DHT22;2689;50.954;7.116;2024-03-02T09:21:27;20.30;59.10
5334;DHT22;2689;50.954;7.116;2024-03-02T09:23:56;20.70;58.30
5334;DHT22;2689;50.954;7.116;2024-03-02T09:26:25;20.90;57.90
5334;DHT22;2689;50.954;7.116;2024-03-02T09:28:52;21.50;57.50
5334;DHT22;2689;50.954;7.116;2024-03-02T09:31:19;20.20;57.10
5334;DHT22;2689;50.954;7.116;2024-03-02T09:33:46;19.60;58.40
5334;DHT22;2689;50.954;7.116;2024-03-02T09:36:19;19.50;59.20
5334;DHT22;2689;50.954;7.116;2024-03-02T09:38:46;20.10;58.60
5334;DHT22;2689;50.954;7.116;2024-03-02T09:41:14;20.50;57.50
5334;DHT22;2689;50.954;7.116;2024-03-02T09:43:41;20.80;57.20
5334;DHT22;2689;50.954;7.116;2024-03-02T09:46:09;20.40;56.60
5334;DHT22;2689;50.954;7.116;2024-03-02T09:48:35;20.20;57.50
5334;DHT22;2689;50.954;7.116;2024-03-02T09:51:04;20.30;57.50
5334;DHT22;2689;50.954;7.116;2024-03-02T09:53:33;20.50;57.10
5334;DHT22;2689;50.954;7.116;2024-03-02T09:56:00;20.30;57.70
5334;DHT22;2689;50.954;7.116;2024-03-02T09:58:27;20.40;57.10
5334;DHT22;2689;50.954;7.116;2024-03-02T10:00:54;20.40;56.80
5334;DHT22;2689;50.954;7.116;2024-03-02T10:03:23;20.40;56.90
5334;DHT22;2689;50.954;7.116;2024-03-02T10:05:49;20.30;57.30
5334;DHT22;2689;50.954;7.116;2024-03-02T10:08:17;19.50;57.80
5334;DHT22;2689;50.954;7.116;2024-03-02T10:10:45;18.70;58.80
5334;DHT22;2689;50.954;7.116;2024-03-02T10:13:13;18.80;59.90
5334;DHT22;2689;50.954;7.116;2024-03-02T10:15:41;19.70;59.90
5334;DHT22;2689;50.954;7.116;2024-03-02T10:18:12;19.80;57.70
5334;DHT22;2689;50.954;7.116;2024-03-02T10:20:40;19.20;58.10
5334;DHT22;2689;50.954;7.116;2024-03-02T10:23:13;18.60;59.30
5334;DHT22;2689;50.954;7.116;2024-03-02T10:25:40;18.80;59.60
5334;DHT22;2689;50.954;7.116;2024-03-02T10:28:10;19.40;59.60
5334;DHT22;2689;50.954;7.116;2024-03-02T10:30:37;20.30;57.30
5334;DHT22;2689;50.954;7.116;2024-03-02T10:33:05;21.30;55.80
5334;DHT22;2689;50.954;7.116;2024-03-02T10:35:33;21.80;54.60
5334;DHT22;2689;50.954;7.116;2024-03-02T10:38:04;21.70;54.20
5334;DHT22;2689;50.954;7.116;2024-03-02T10:40:32;21.50;54.10
5334;DHT22;2689;50.954;7.116;2024-03-02T10:43:01;21.50;55.00
5334;DHT22;2689;50.954;7.116;2024-03-02T10:45:30;22.40;53.50
5334;DHT22;2689;50.954;7.116;2024-03-02T10:47:58;22.10;52.90
5334;DHT22;2689;50.954;7.116;2024-03-02T10:50:25;21.50;54.20
5334;DHT22;2689;50.954;7.116;2024-03-02T10:52:52;21.70;54.10
5334;DHT22;2689;50.954;7.116;2024-03-02T11:06:12;22.80;52.00
5334;DHT22;2689;50.954;7.116;2024-03-02T11:08:40;22.90;52.20
5334;DHT22;2689;50.954;7.116;2024-03-02T11:11:13;22.40;51.90
5334;DHT22;2689;50.954;7.116;2024-03-02T11:13:47;22.40;52.30
5334;DHT22;2689;50.954;7.116;2024-03-02T11:16:26;22.10;53.10
5334;DHT22;2689;50.954;7.116;2024-03-02T11:18:55;22.30;53.40
5334;DHT22;2689;50.954;7.116;2024-03-02T11:21:26;22.50;52.40
5334;DHT22;2689;50.954;7.116;2024-03-02T11:23:52;22.50;53.00
5334;DHT22;2689;50.954;7.116;2024-03-02T11:26:21;22.30;52.20
5334;DHT22;2689;50.954;7.116;2024-03-02T11:28:49;21.80;52.50
5334;DHT22;2689;50.954;7.116;2024-03-02T11:31:16;21.20;53.30
5334;DHT22;2689;50.954;7.116;2024-03-02T11:33:43;20.90;54.00
5334;DHT22;2689;50.954;7.116;2024-03-02T11:36:10;21.40;54.00
5334;DHT22;2689;50.954;7.116;2024-03-02T11:38:43;21.50;53.40
5334;DHT22;2689;50.954;7.116;2024-03-02T11:41:11;21.30;54.10
5334;DHT22;2689;50.954;7.116;2024-03-02T11:43:42;21.20;53.90
5334;DHT22;2689;50.954;7.116;2024-03-02T11:46:10;21.20;54.00
5334;DHT22;2689;50.954;7.116;2024-03-02T11:48:39;20.80;54.00
5334;DHT22;2689;50.954;7.116;2024-03-02T11:51:06;20.20;55.00
5334;DHT22;2689;50.954;7.116;2024-03-02T11:53:35;19.50;56.00
5334;DHT22;2689;50.954;7.116;2024-03-02T11:56:07;18.90;57.50
5334;DHT22;2689;50.954;7.116;2024-03-02T11:58:39;18.70;58.30
5334;DHT22;2689;50.954;7.116;2024-03-02T12:01:06;18.90;58.40
5334;DHT22;2689;50.954;7.116;2024-03-02T12:03:34;18.70;58.70
5334;DHT22;2689;50.954;7.116;2024-03-02T12:06:03;18.40;59.00
5334;DHT22;2689;50.954;7.116;2024-03-02T12:08:31;18.80;59.40
5334;DHT22;2689;50.954;7.116;2024-03-02T12:10:59;18.40;59.30
5334;DHT22;2689;50.954;7.116;2024-03-02T12:13:28;18.70;59.90
5334;DHT22;2689;50.954;7.116;2024-03-02T12:15:55;18.90;59.10
5334;DHT22;2689;50.954;7.116;2024-03-02T12:18:22;19.00;58.80
5334;DHT22;2689;50.954;7.116;2024-03-02T12:20:50;18.50;59.80
5334;DHT22;2689;50.954;7.116;2024-03-02T12:23:18;18.30;60.60
5334;DHT22;2689;50.954;7.116;2024-03-02T12:25:45;18.40;61.00
5334;DHT22;2689;50.954;7.116;2024-03-02T12:28:12;18.70;60.10
5334;DHT22;2689;50.954;7.116;2024-03-02T12:30:41;19.40;59.80
5334;DHT22;2689;50.954;7.116;2024-03-02T12:33:08;19.60;59.40
5334;DHT22;2689;50.954;7.116;2024-03-02T12:35:37;19.50;58.50
5334;DHT22;2689;50.954;7.116;2024-03-02T12:38:05;19.50;58.70
5334;DHT22;2689;50.954;7.116;2024-03-02T12:40:32;19.60;59.50
5334;DHT22;2689;50.954;7.116;2024-03-02T12:42:58;20.00;58.30
5334;DHT22;2689;50.954;7.116;2024-03-02T12:45:26;20.00;57.50
5334;DHT22;2689;50.954;7.116;2024-03-02T12:47:55;19.80;58.10
5334;DHT22;2689;50.954;7.116;2024-03-02T12:50:22;20.30;57.80
5334;DHT22;2689;50.954;7.116;2024-03-02T12:52:52;20.50;57.30
5334;DHT22;2689;50.954;7.116;2024-03-02T12:55:20;19.70;56.60
5334;DHT22;2689;50.954;7.116;2024-03-02T12:57:50;18.70;58.90
5334;DHT22;2689;50.954;7.116;2024-03-02T13:00:18;18.40;60.50
5334;DHT22;2689;50.954;7.116;2024-03-02T13:02:46;18.10;60.40
5334;DHT22;2689;50.954;7.116;2024-03-02T13:05:15;18.20;61.40
5334;DHT22;2689;50.954;7.116;2024-03-02T13:07:42;18.80;60.10
5334;DHT22;2689;50.954;7.116;2024-03-02T13:10:10;19.00;60.10
5334;DHT22;2689;50.954;7.116;2024-03-02T13:12:39;19.10;58.70
5334;DHT22;2689;50.954;7.116;2024-03-02T13:15:07;18.30;59.20
5334;DHT22;2689;50.954;7.116;2024-03-02T13:17:34;17.70;61.20
5334;DHT22;2689;50.954;7.116;2024-03-02T13:20:03;17.80;61.30
5334;DHT22;2689;50.954;7.116;2024-03-02T13:22:35;17.80;61.60
5334;DHT22;2689;50.954;7.116;2024-03-02T13:25:03;17.90;61.10
5334;DHT22;2689;50.954;7.116;2024-03-02T13:27:31;17.50;61.60
5334;DHT22;2689;50.954;7.116;2024-03-02T13:29:59;16.90;62.30
5334;DHT22;2689;50.954;7.116;2024-03-02T13:32:26;16.70;63.70
5334;DHT22;2689;50.954;7.116;2024-03-02T13:34:53;16.80;64.20
5334;DHT22;2689;50.954;7.116;2024-03-02T13:37:22;16.90;64.50
5334;DHT22;2689;50.954;7.116;2024-03-02T13:39:50;17.00;64.40
5334;DHT22;2689;50.954;7.116;2024-03-02T13:42:17;17.30;63.90
5334;DHT22;2689;50.954;7.116;2024-03-02T13:44:44;17.40;63.20
5334;DHT22;2689;50.954;7.116;2024-03-02T13:47:13;17.40;63.00
5334;DHT22;2689;50.954;7.116;2024-03-02T13:49:40;17.30;63.50
5334;DHT22;2689;50.954;7.116;2024-03-02T13:52:09;16.90;64.50
5334;DHT22;2689;50.954;7.116;2024-03-02T13:54:38;16.70;65.10
5334;DHT22;2689;50.954;7.116;2024-03-02T13:57:07;16.40;64.90
5334;DHT22;2689;50.954;7.116;2024-03-02T13:59:34;16.20;65.80
5334;DHT22;2689;50.954;7.116;2024-03-02T14:02:01;16.10;66.40
5334;DHT22;2689;50.954;7.116;2024-03-02T14:04:29;16.00;67.00
5334;DHT22;2689;50.954;7.116;2024-03-02T14:06:57;16.00;67.50
5334;DHT22;2689;50.954;7.116;2024-03-02T14:09:24;16.10;66.70
5334;DHT22;2689;50.954;7.116;2024-03-02T14:11:51;16.00;66.70
5334;DHT22;2689;50.954;7.116;2024-03-02T14:14:19;16.10;66.70
5334;DHT22;2689;50.954;7.116;2024-03-02T14:16:46;16.30;66.50
5334;DHT22;2689;50.954;7.116;2024-03-02T14:19:13;16.40;65.50
5334;DHT22;2689;50.954;7.116;2024-03-02T14:21:40;16.50;65.80
5334;DHT22;2689;50.954;7.116;2024-03-02T14:24:13;16.60;64.70
5334;DHT22;2689;50.954;7.116;2024-03-02T14:26:40;16.40;65.10
5334;DHT22;2689;50.954;7.116;2024-03-02T14:29:07;16.40;65.20
5334;DHT22;2689;50.954;7.116;2024-03-02T14:31:35;16.30;66.00
5334;DHT22;2689;50.954;7.116;2024-03-02T14:34:02;16.20;66.00
5334;DHT22;2689;50.954;7.116;2024-03-02T14:36:29;16.00;66.40
5334;DHT22;2689;50.954;7.116;2024-03-02T14:38:56;15.80;67.20
5334;DHT22;2689;50.954;7.116;2024-03-02T14:41:23;15.60;67.50
5334;DHT22;2689;50.954;7.116;2024-03-02T14:43:50;15.40;68.00
5334;DHT22;2689;50.954;7.116;2024-03-02T14:46:17;15.30;68.30
5334;DHT22;2689;50.954;7.116;2024-03-02T14:48:46;15.20;68.60
5334;DHT22;2689;50.954;7.116;2024-03-02T14:51:13;15.20;68.90
5334;DHT22;2689;50.954;7.116;2024-03-02T14:53:40;15.10;69.10
5334;DHT22;2689;50.954;7.116;2024-03-02T14:56:07;14.90;68.60
5334;DHT22;2689;50.954;7.116;2024-03-02T14:58:35;14.90;68.70
5334;DHT22;2689;50.954;7.116;2024-03-02T15:01:03;14.90;68.80
5334;DHT22;2689;50.954;7.116;2024-03-02T15:03:30;14.90;68.80
5334;DHT22;2689;50.954;7.116;2024-03-02T15:05:59;14.90;68.80
5334;DHT22;2689;50.954;7.116;2024-03-02T15:08:25;14.90;69.10
5334;DHT22;2689;50.954;7.116;2024-03-02T15:10:52;15.00;69.70
5334;DHT22;2689;50.954;7.116;2024-03-02T15:13:21;14.90;68.70
5334;DHT22;2689;50.954;7.116;2024-03-02T15:15:48;14.80;68.50
5334;DHT22;2689;50.954;7.116;2024-03-02T15:18:14;14.70;69.00
5334;DHT22;2689;50.954;7.116;2024-03-02T15:20:41;14.70;69.10
5334;DHT22;2689;50.954;7.116;2024-03-02T15:23:10;14.70;69.30
5334;DHT22;2689;50.954;7.116;2024-03-02T15:25:37;14.70;69.20
5334;DHT22;2689;50.954;7.116;2024-03-02T15:28:04;14.80;69.70
5334;DHT22;2689;50.954;7.116;2024-03-02T15:30:31;14.70;68.80
5334;DHT22;2689;50.954;7.116;2024-03-02T15:32:58;14.70;68.90
5334;DHT22;2689;50.954;7.116;2024-03-02T15:35:26;14.70;69.00
5334;DHT22;2689;50.954;7.116;2024-03-02T15:37:53;14.70;69.00
5334;DHT22;2689;50.954;7.116;2024-03-02T15:40:21;14.70;69.20
5334;DHT22;2689;50.954;7.116;2024-03-02T15:42:48;14.80;70.00
5334;DHT22;2689;50.954;7.116;2024-03-02T15:45:15;14.90;69.40
5334;DHT22;2689;50.954;7.116;2024-03-02T15:47:42;14.90;69.10
5334;DHT22;2689;50.954;7.116;2024-03-02T15:50:09;14.80;68.60
5334;DHT22;2689;50.954;7.116;2024-03-02T15:52:37;14.80;68.60
5334;DHT22;2689;50.954;7.116;2024-03-02T15:55:04;14.70;68.90
5334;DHT22;2689;50.954;7.116;2024-03-02T15:57:33;14.80;70.00
5334;DHT22;2689;50.954;7.116;2024-03-02T16:00:00;14.80;68.80
5334;DHT22;2689;50.954;7.116;2024-03-02T16:02:27;14.80;68.90
5334;DHT22;2689;50.954;7.116;2024-03-02T16:04:55;14.80;68.90
5334;DHT22;2689;50.954;7.116;2024-03-02T16:07:22;14.80;68.90
5334;DHT22;2689;50.954;7.116;2024-03-02T16:09:51;14.70;68.50
5334;DHT22;2689;50.954;7.116;2024-03-02T16:12:18;14.80;69.10
5334;DHT22;2689;50.954;7.116;2024-03-02T16:14:47;14.70;68.70
5334;DHT22;2689;50.954;7.116;2024-03-02T16:17:14;14.60;68.90
5334;DHT22;2689;50.954;7.116;2024-03-02T16:19:41;14.50;68.60
5334;DHT22;2689;50.954;7.116;2024-03-02T16:22:08;14.50;68.80
5334;DHT22;2689;50.954;7.116;2024-03-02T16:24:36;14.40;68.70
5334;DHT22;2689;50.954;7.116;2024-03-02T16:27:04;14.40;69.20
5334;DHT22;2689;50.954;7.116;2024-03-02T16:29:31;14.40;69.20
5334;DHT22;2689;50.954;7.116;2024-03-02T16:31:59;14.40;69.00
5334;DHT22;2689;50.954;7.116;2024-03-02T16:34:26;14.40;69.30
5334;DHT22;2689;50.954;7.116;2024-03-02T16:36:53;14.40;69.20
5334;DHT22;2689;50.954;7.116;2024-03-02T16:39:21;14.30;69.20